sensor_id;sensor_type;location;lat;lon;timestamp;P1;durP1;ratioP1;P2;durP2;ratioP2
14698;SDS011;7439;50.804;4.602;2023-05-08T00:00:42;18.43;;;16.17;;
14698;SDS011;7439;50.804;4.602;2023-05-08T00:03:09;16.70;;;15.07;;
14698;SDS011;7439;50.804;4.602;2023-05-08T00:05:37;17.33;;;15.50;;
14698;SDS011;7439;50.804;4.602;2023-05-08T00:08:04;18.87;;;16.40;;
14698;SDS011;7439;50.804;4.602;2023-05-08T00:10:32;20.37;;;17.60;;
14698;SDS011;7439;50.804;4.602;2023-05-08T00:12:59;29.07;;;18.30;;
14698;SDS011;7439;50.804;4.602;2023-05-08T00:15:28;47.33;;;16.80;;
14698;SDS011;7439;50.804;4.602;2023-05-08T00:17:55;19.17;;;17.07;;
14698;SDS011;7439;50.804;4.602;2023-05-08T00:20:23;36.97;;;19.60;;
14698;SDS011;7439;50.804;4.602;2023-05-08T00:22:50;45.23;;;24.50;;
14698;SDS011;7439;50.804;4.602;2023-05-08T00:25:18;40.10;;;22.93;;
14698;SDS011;7439;50.804;4.602;2023-05-08T00:27:45;30.63;;;20.50;;
14698;SDS011;7439;50.804;4.602;2023-05-08T00:30:12;36.50;;;26.97;;
14698;SDS011;7439;50.804;4.602;2023-05-08T00:32:41;61.00;;;32.33;;
14698;SDS011;7439;50.804;4.602;2023-05-08T00:35:09;52.70;;;31.63;;
14698;SDS011;7439;50.804;4.602;2023-05-08T00:37:36;56.77;;;32.60;;
14698;SDS011;7439;50.804;4.602;2023-05-08T00:40:06;37.07;;;25.10;;
14698;SDS011;7439;50.804;4.602;2023-05-08T00:42:34;44.37;;;19.57;;
14698;SDS011;7439;50.804;4.602;2023-05-08T00:45:02;43.17;;;28.07;;
14698;SDS011;7439;50.804;4.602;2023-05-08T00:47:30;38.10;;;27.43;;
14698;SDS011;7439;50.804;4.602;2023-05-08T00:49:59;51.10;;;23.77;;
14698;SDS011;7439;50.804;4.602;2023-05-08T00:52:27;43.77;;;23.77;;
14698;SDS011;7439;50.804;4.602;2023-05-08T00:54:55;43.50;;;24.13;;
14698;SDS011;7439;50.804;4.602;2023-05-08T00:57:23;34.83;;;21.23;;
14698;SDS011;7439;50.804;4.602;2023-05-08T00:59:50;54.80;;;24.93;;
14698;SDS011;7439;50.804;4.602;2023-05-08T01:02:18;100.43;;;44.07;;
14698;SDS011;7439;50.804;4.602;2023-05-08T01:04:46;70.50;;;33.80;;
14698;SDS011;7439;50.804;4.602;2023-05-08T01:07:15;53.53;;;20.63;;
14698;SDS011;7439;50.804;4.602;2023-05-08T01:09:44;34.43;;;20.90;;
14698;SDS011;7439;50.804;4.602;2023-05-08T01:12:14;33.77;;;24.77;;
14698;SDS011;7439;50.804;4.602;2023-05-08T01:14:47;43.90;;;29.20;;
14698;SDS011;7439;50.804;4.602;2023-05-08T01:17:20;40.20;;;27.37;;
14698;SDS011;7439;50.804;4.602;2023-05-08T01:19:56;34.10;;;23.53;;
14698;SDS011;7439;50.804;4.602;2023-05-08T01:22:32;35.10;;;22.77;;
14698;SDS011;7439;50.804;4.602;2023-05-08T01:25:13;28.50;;;20.37;;
14698;SDS011;7439;50.804;4.602;2023-05-08T01:33:16;32.47;;;22.07;;
14698;SDS011;7439;50.804;4.602;2023-05-08T01:35:46;28.23;;;19.77;;
14698;SDS011;7439;50.804;4.602;2023-05-08T01:38:17;34.60;;;21.00;;
14698;SDS011;7439;50.804;4.602;2023-05-08T01:40:47;37.73;;;21.40;;
14698;SDS011;7439;50.804;4.602;2023-05-08T01:43:18;40.90;;;21.40;;
14698;SDS011;7439;50.804;4.602;2023-05-08T01:45:48;32.73;;;21.00;;
14698;SDS011;7439;50.804;4.602;2023-05-08T01:48:18;45.17;;;20.07;;
14698;SDS011;7439;50.804;4.602;2023-05-08T01:50:47;49.33;;;21.57;;
14698;SDS011;7439;50.804;4.602;2023-05-08T01:53:16;55.50;;;25.13;;
14698;SDS011;7439;50.804;4.602;2023-05-08T01:55:46;66.73;;;25.80;;
14698;SDS011;7439;50.804;4.602;2023-05-08T01:58:14;62.23;;;30.50;;
14698;SDS011;7439;50.804;4.602;2023-05-08T02:00:42;80.63;;;35.67;;
14698;SDS011;7439;50.804;4.602;2023-05-08T02:03:10;38.37;;;25.90;;
14698;SDS011;7439;50.804;4.602;2023-05-08T02:05:39;39.20;;;25.83;;
14698;SDS011;7439;50.804;4.602;2023-05-08T02:08:07;46.23;;;27.60;;
14698;SDS011;7439;50.804;4.602;2023-05-08T02:10:35;39.60;;;27.27;;
14698;SDS011;7439;50.804;4.602;2023-05-08T02:13:03;37.17;;;26.50;;
14698;SDS011;7439;50.804;4.602;2023-05-08T02:15:30;41.93;;;29.77;;
14698;SDS011;7439;50.804;4.602;2023-05-08T02:18:00;48.20;;;29.07;;
14698;SDS011;7439;50.804;4.602;2023-05-08T02:20:28;46.93;;;27.77;;
14698;SDS011;7439;50.804;4.602;2023-05-08T02:22:59;38.23;;;28.27;;
14698;SDS011;7439;50.804;4.602;2023-05-08T02:25:26;39.30;;;25.80;;
14698;SDS011;7439;50.804;4.602;2023-05-08T02:27:55;45.97;;;30.20;;
14698;SDS011;7439;50.804;4.602;2023-05-08T02:30:23;43.50;;;30.93;;
14698;SDS011;7439;50.804;4.602;2023-05-08T02:32:51;44.20;;;31.30;;
14698;SDS011;7439;50.804;4.602;2023-05-08T02:35:19;36.17;;;25.20;;
14698;SDS011;7439;50.804;4.602;2023-05-08T02:37:48;36.43;;;29.07;;
14698;SDS011;7439;50.804;4.602;2023-05-08T02:40:19;32.73;;;26.13;;
14698;SDS011;7439;50.804;4.602;2023-05-08T02:42:47;41.17;;;29.40;;
14698;SDS011;7439;50.804;4.602;2023-05-08T02:45:14;34.47;;;25.80;;
14698;SDS011;7439;50.804;4.602;2023-05-08T02:47:42;33.03;;;24.57;;
14698;SDS011;7439;50.804;4.602;2023-05-08T02:50:13;35.77;;;27.13;;
14698;SDS011;7439;50.804;4.602;2023-05-08T02:52:43;48.23;;;34.60;;
14698;SDS011;7439;50.804;4.602;2023-05-08T02:55:15;66.87;;;40.30;;
14698;SDS011;7439;50.804;4.602;2023-05-08T02:57:47;68.87;;;41.20;;
14698;SDS011;7439;50.804;4.602;2023-05-08T03:00:17;76.57;;;44.93;;
14698;SDS011;7439;50.804;4.602;2023-05-08T03:02:47;77.20;;;46.50;;
14698;SDS011;7439;50.804;4.602;2023-05-08T03:05:16;63.07;;;39.03;;
14698;SDS011;7439;50.804;4.602;2023-05-08T03:07:44;73.33;;;42.33;;
14698;SDS011;7439;50.804;4.602;2023-05-08T03:10:13;109.00;;;55.83;;
14698;SDS011;7439;50.804;4.602;2023-05-08T03:12:43;142.47;;;60.13;;
14698;SDS011;7439;50.804;4.602;2023-05-08T03:15:12;90.10;;;54.30;;
14698;SDS011;7439;50.804;4.602;2023-05-08T03:17:41;103.20;;;49.90;;
14698;SDS011;7439;50.804;4.602;2023-05-08T03:20:10;128.37;;;61.90;;
14698;SDS011;7439;50.804;4.602;2023-05-08T03:22:38;135.80;;;64.53;;
14698;SDS011;7439;50.804;4.602;2023-05-08T03:25:07;139.30;;;64.03;;
14698;SDS011;7439;50.804;4.602;2023-05-08T03:27:35;140.53;;;67.63;;
14698;SDS011;7439;50.804;4.602;2023-05-08T03:30:03;140.43;;;64.93;;
14698;SDS011;7439;50.804;4.602;2023-05-08T03:32:32;137.37;;;65.43;;
14698;SDS011;7439;50.804;4.602;2023-05-08T03:35:00;132.77;;;63.93;;
14698;SDS011;7439;50.804;4.602;2023-05-08T03:37:29;140.30;;;65.37;;
14698;SDS011;7439;50.804;4.602;2023-05-08T03:39:56;158.93;;;68.43;;
14698;SDS011;7439;50.804;4.602;2023-05-08T03:42:24;150.43;;;64.73;;
14698;SDS011;7439;50.804;4.602;2023-05-08T03:44:52;149.90;;;66.10;;
14698;SDS011;7439;50.804;4.602;2023-05-08T03:47:20;118.10;;;57.60;;
14698;SDS011;7439;50.804;4.602;2023-05-08T03:49:49;97.73;;;46.37;;
14698;SDS011;7439;50.804;4.602;2023-05-08T03:52:17;111.90;;;55.33;;
14698;SDS011;7439;50.804;4.602;2023-05-08T03:54:45;106.77;;;55.73;;
14698;SDS011;7439;50.804;4.602;2023-05-08T03:57:12;95.10;;;49.73;;
14698;SDS011;7439;50.804;4.602;2023-05-08T03:59:41;120.67;;;61.27;;
14698;SDS011;7439;50.804;4.602;2023-05-08T04:02:16;134.73;;;67.90;;
14698;SDS011;7439;50.804;4.602;2023-05-08T04:04:46;144.03;;;70.57;;
14698;SDS011;7439;50.804;4.602;2023-05-08T04:07:19;130.67;;;65.87;;
14698;SDS011;7439;50.804;4.602;2023-05-08T04:09:50;170.53;;;81.20;;
14698;SDS011;7439;50.804;4.602;2023-05-08T04:12:21;152.43;;;72.60;;
14698;SDS011;7439;50.804;4.602;2023-05-08T04:14:52;195.97;;;87.53;;
14698;SDS011;7439;50.804;4.602;2023-05-08T04:17:22;196.53;;;92.63;;
14698;SDS011;7439;50.804;4.602;2023-05-08T04:19:56;201.67;;;91.03;;
14698;SDS011;7439;50.804;4.602;2023-05-08T04:22:26;198.57;;;94.53;;
14698;SDS011;7439;50.804;4.602;2023-05-08T04:24:54;212.50;;;93.43;;
14698;SDS011;7439;50.804;4.602;2023-05-08T04:27:23;211.33;;;92.47;;
14698;SDS011;7439;50.804;4.602;2023-05-08T04:29:52;209.30;;;94.10;;
14698;SDS011;7439;50.804;4.602;2023-05-08T04:32:23;201.77;;;95.53;;
14698;SDS011;7439;50.804;4.602;2023-05-08T04:34:51;193.37;;;94.13;;
14698;SDS011;7439;50.804;4.602;2023-05-08T04:37:22;201.97;;;99.63;;
14698;SDS011;7439;50.804;4.602;2023-05-08T04:39:52;207.20;;;87.63;;
14698;SDS011;7439;50.804;4.602;2023-05-08T04:42:22;202.70;;;83.53;;
14698;SDS011;7439;50.804;4.602;2023-05-08T04:44:50;189.77;;;86.07;;
14698;SDS011;7439;50.804;4.602;2023-05-08T04:47:17;194.60;;;87.40;;
14698;SDS011;7439;50.804;4.602;2023-05-08T04:49:45;200.93;;;89.87;;
14698;SDS011;7439;50.804;4.602;2023-05-08T04:52:12;177.47;;;77.40;;
14698;SDS011;7439;50.804;4.602;2023-05-08T04:54:40;206.13;;;87.50;;
14698;SDS011;7439;50.804;4.602;2023-05-08T04:57:09;153.43;;;70.97;;
14698;SDS011;7439;50.804;4.602;2023-05-08T04:59:36;167.03;;;77.10;;
14698;SDS011;7439;50.804;4.602;2023-05-08T05:02:03;163.50;;;72.20;;
14698;SDS011;7439;50.804;4.602;2023-05-08T05:04:32;163.87;;;79.80;;
14698;SDS011;7439;50.804;4.602;2023-05-08T05:07:00;214.10;;;77.33;;
14698;SDS011;7439;50.804;4.602;2023-05-08T05:09:27;151.53;;;65.57;;
14698;SDS011;7439;50.804;4.602;2023-05-08T05:11:55;133.40;;;56.80;;
14698;SDS011;7439;50.804;4.602;2023-05-08T05:14:24;168.83;;;74.90;;
14698;SDS011;7439;50.804;4.602;2023-05-08T05:16:51;150.53;;;57.87;;
14698;SDS011;7439;50.804;4.602;2023-05-08T05:19:18;166.73;;;75.80;;
14698;SDS011;7439;50.804;4.602;2023-05-08T05:21:46;161.57;;;75.63;;
14698;SDS011;7439;50.804;4.602;2023-05-08T05:24:13;151.80;;;70.93;;
14698;SDS011;7439;50.804;4.602;2023-05-08T05:26:41;154.67;;;70.00;;
14698;SDS011;7439;50.804;4.602;2023-05-08T05:29:08;158.97;;;68.53;;
14698;SDS011;7439;50.804;4.602;2023-05-08T05:31:37;132.47;;;64.67;;
14698;SDS011;7439;50.804;4.602;2023-05-08T05:34:04;147.80;;;64.43;;
14698;SDS011;7439;50.804;4.602;2023-05-08T05:36:32;153.83;;;73.37;;
14698;SDS011;7439;50.804;4.602;2023-05-08T05:38:59;135.83;;;67.40;;
14698;SDS011;7439;50.804;4.602;2023-05-08T05:41:27;144.37;;;68.33;;
14698;SDS011;7439;50.804;4.602;2023-05-08T05:43:54;145.43;;;73.40;;
14698;SDS011;7439;50.804;4.602;2023-05-08T05:46:21;144.07;;;71.83;;
14698;SDS011;7439;50.804;4.602;2023-05-08T05:48:53;144.30;;;76.33;;
14698;SDS011;7439;50.804;4.602;2023-05-08T05:51:21;154.90;;;78.77;;
14698;SDS011;7439;50.804;4.602;2023-05-08T05:53:48;155.53;;;77.83;;
14698;SDS011;7439;50.804;4.602;2023-05-08T05:56:15;138.07;;;68.30;;
14698;SDS011;7439;50.804;4.602;2023-05-08T05:58:43;140.67;;;72.10;;
14698;SDS011;7439;50.804;4.602;2023-05-08T06:01:10;123.87;;;58.50;;
14698;SDS011;7439;50.804;4.602;2023-05-08T06:03:38;126.13;;;56.90;;
14698;SDS011;7439;50.804;4.602;2023-05-08T06:06:06;115.77;;;54.57;;
14698;SDS011;7439;50.804;4.602;2023-05-08T06:08:34;122.60;;;55.63;;
14698;SDS011;7439;50.804;4.602;2023-05-08T06:11:01;106.97;;;53.03;;
14698;SDS011;7439;50.804;4.602;2023-05-08T06:13:29;113.50;;;54.90;;
14698;SDS011;7439;50.804;4.602;2023-05-08T06:15:56;104.90;;;50.93;;
14698;SDS011;7439;50.804;4.602;2023-05-08T06:18:24;104.30;;;51.90;;
14698;SDS011;7439;50.804;4.602;2023-05-08T06:20:54;117.97;;;64.27;;
14698;SDS011;7439;50.804;4.602;2023-05-08T06:23:25;116.83;;;59.87;;
14698;SDS011;7439;50.804;4.602;2023-05-08T06:25:54;120.97;;;63.27;;
14698;SDS011;7439;50.804;4.602;2023-05-08T06:28:21;120.80;;;60.40;;
14698;SDS011;7439;50.804;4.602;2023-05-08T06:30:50;118.07;;;55.00;;
14698;SDS011;7439;50.804;4.602;2023-05-08T06:33:18;105.73;;;54.17;;
14698;SDS011;7439;50.804;4.602;2023-05-08T06:35:45;112.60;;;55.70;;
14698;SDS011;7439;50.804;4.602;2023-05-08T06:38:13;111.57;;;58.93;;
14698;SDS011;7439;50.804;4.602;2023-05-08T06:43:30;108.07;;;54.47;;
14698;SDS011;7439;50.804;4.602;2023-05-08T06:45:57;107.03;;;49.30;;
14698;SDS011;7439;50.804;4.602;2023-05-08T06:48:25;103.63;;;56.50;;
14698;SDS011;7439;50.804;4.602;2023-05-08T06:50:53;107.77;;;54.73;;
14698;SDS011;7439;50.804;4.602;2023-05-08T06:53:20;112.40;;;51.07;;
14698;SDS011;7439;50.804;4.602;2023-05-08T06:55:48;102.37;;;53.33;;
14698;SDS011;7439;50.804;4.602;2023-05-08T06:58:15;89.47;;;50.70;;
14698;SDS011;7439;50.804;4.602;2023-05-08T07:00:44;97.33;;;49.67;;
14698;SDS011;7439;50.804;4.602;2023-05-08T07:03:12;111.63;;;45.10;;
14698;SDS011;7439;50.804;4.602;2023-05-08T07:05:39;82.03;;;45.77;;
14698;SDS011;7439;50.804;4.602;2023-05-08T07:08:07;104.20;;;48.90;;
14698;SDS011;7439;50.804;4.602;2023-05-08T07:10:34;99.23;;;49.17;;
14698;SDS011;7439;50.804;4.602;2023-05-08T07:13:01;74.57;;;40.70;;
14698;SDS011;7439;50.804;4.602;2023-05-08T07:15:30;86.90;;;49.90;;
14698;SDS011;7439;50.804;4.602;2023-05-08T07:17:58;68.90;;;37.10;;
14698;SDS011;7439;50.804;4.602;2023-05-08T07:20:26;69.43;;;38.03;;
14698;SDS011;7439;50.804;4.602;2023-05-08T07:22:54;72.67;;;45.00;;
14698;SDS011;7439;50.804;4.602;2023-05-08T07:25:21;94.07;;;48.13;;
14698;SDS011;7439;50.804;4.602;2023-05-08T07:27:48;86.97;;;48.60;;
14698;SDS011;7439;50.804;4.602;2023-05-08T07:30:16;93.60;;;45.07;;
14698;SDS011;7439;50.804;4.602;2023-05-08T07:32:47;82.23;;;47.10;;
14698;SDS011;7439;50.804;4.602;2023-05-08T07:35:18;76.50;;;43.80;;
14698;SDS011;7439;50.804;4.602;2023-05-08T07:37:46;72.50;;;44.43;;
14698;SDS011;7439;50.804;4.602;2023-05-08T07:40:16;70.17;;;44.23;;
14698;SDS011;7439;50.804;4.602;2023-05-08T07:42:44;73.60;;;43.03;;
14698;SDS011;7439;50.804;4.602;2023-05-08T07:45:13;63.70;;;37.20;;
14698;SDS011;7439;50.804;4.602;2023-05-08T07:47:47;63.53;;;39.97;;
14698;SDS011;7439;50.804;4.602;2023-05-08T08:08:51;52.13;;;32.00;;
14698;SDS011;7439;50.804;4.602;2023-05-08T08:11:20;60.10;;;37.70;;
14698;SDS011;7439;50.804;4.602;2023-05-08T08:13:47;54.70;;;29.23;;
14698;SDS011;7439;50.804;4.602;2023-05-08T08:16:15;57.90;;;38.80;;
14698;SDS011;7439;50.804;4.602;2023-05-08T08:18:42;61.83;;;40.80;;
14698;SDS011;7439;50.804;4.602;2023-05-08T08:21:09;56.33;;;30.23;;
14698;SDS011;7439;50.804;4.602;2023-05-08T08:23:37;78.60;;;40.73;;
14698;SDS011;7439;50.804;4.602;2023-05-08T08:26:06;82.80;;;47.63;;
14698;SDS011;7439;50.804;4.602;2023-05-08T08:28:33;76.87;;;39.83;;
14698;SDS011;7439;50.804;4.602;2023-05-08T08:31:00;83.37;;;42.03;;
14698;SDS011;7439;50.804;4.602;2023-05-08T08:33:28;85.77;;;46.90;;
14698;SDS011;7439;50.804;4.602;2023-05-08T08:35:55;88.83;;;44.37;;
14698;SDS011;7439;50.804;4.602;2023-05-08T08:38:23;74.80;;;43.20;;
14698;SDS011;7439;50.804;4.602;2023-05-08T08:40:50;67.97;;;42.07;;
14698;SDS011;7439;50.804;4.602;2023-05-08T08:43:19;73.37;;;42.93;;
14698;SDS011;7439;50.804;4.602;2023-05-08T08:45:47;68.77;;;39.43;;
14698;SDS011;7439;50.804;4.602;2023-05-08T08:48:14;66.67;;;38.97;;
14698;SDS011;7439;50.804;4.602;2023-05-08T08:50:42;65.37;;;38.23;;
14698;SDS011;7439;50.804;4.602;2023-05-08T08:53:14;62.27;;;37.10;;
14698;SDS011;7439;50.804;4.602;2023-05-08T08:55:43;54.23;;;35.50;;
14698;SDS011;7439;50.804;4.602;2023-05-08T08:58:15;55.73;;;36.10;;
14698;SDS011;7439;50.804;4.602;2023-05-08T09:00:46;40.17;;;29.80;;
14698;SDS011;7439;50.804;4.602;2023-05-08T09:03:14;39.47;;;26.17;;
14698;SDS011;7439;50.804;4.602;2023-05-08T09:05:41;84.33;;;29.33;;
14698;SDS011;7439;50.804;4.602;2023-05-08T09:08:09;39.97;;;28.07;;
14698;SDS011;7439;50.804;4.602;2023-05-08T09:10:37;36.57;;;25.43;;
14698;SDS011;7439;50.804;4.602;2023-05-08T09:13:05;41.67;;;28.93;;
14698;SDS011;7439;50.804;4.602;2023-05-08T09:15:32;44.87;;;30.50;;
14698;SDS011;7439;50.804;4.602;2023-05-08T09:18:06;48.90;;;27.90;;
14698;SDS011;7439;50.804;4.602;2023-05-08T09:20:34;35.50;;;25.53;;
14698;SDS011;7439;50.804;4.602;2023-05-08T09:23:02;34.07;;;24.97;;
14698;SDS011;7439;50.804;4.602;2023-05-08T09:31:33;35.27;;;25.07;;
14698;SDS011;7439;50.804;4.602;2023-05-08T09:36:48;42.10;;;26.40;;
14698;SDS011;7439;50.804;4.602;2023-05-08T09:39:32;30.33;;;22.80;;
14698;SDS011;7439;50.804;4.602;2023-05-08T09:42:06;32.83;;;24.63;;
14698;SDS011;7439;50.804;4.602;2023-05-08T09:44:44;30.27;;;23.20;;
14698;SDS011;7439;50.804;4.602;2023-05-08T09:47:16;30.30;;;23.70;;
14698;SDS011;7439;50.804;4.602;2023-05-08T09:49:55;35.07;;;23.57;;
14698;SDS011;7439;50.804;4.602;2023-05-08T09:52:29;35.73;;;22.60;;
14698;SDS011;7439;50.804;4.602;2023-05-08T09:55:01;33.37;;;21.47;;
14698;SDS011;7439;50.804;4.602;2023-05-08T09:57:33;31.10;;;22.10;;
14698;SDS011;7439;50.804;4.602;2023-05-08T10:00:12;26.33;;;18.53;;
14698;SDS011;7439;50.804;4.602;2023-05-08T10:03:02;29.90;;;21.57;;
14698;SDS011;7439;50.804;4.602;2023-05-08T10:05:43;33.07;;;22.33;;
14698;SDS011;7439;50.804;4.602;2023-05-08T10:08:20;40.60;;;23.90;;
14698;SDS011;7439;50.804;4.602;2023-05-08T10:10:50;35.67;;;22.87;;
14698;SDS011;7439;50.804;4.602;2023-05-08T10:13:19;34.87;;;23.07;;
14698;SDS011;7439;50.804;4.602;2023-05-08T10:15:46;28.60;;;20.60;;
14698;SDS011;7439;50.804;4.602;2023-05-08T10:18:19;26.10;;;19.07;;
14698;SDS011;7439;50.804;4.602;2023-05-08T10:20:50;32.50;;;23.00;;
14698;SDS011;7439;50.804;4.602;2023-05-08T10:23:23;34.57;;;22.50;;
14698;SDS011;7439;50.804;4.602;2023-05-08T10:26:02;32.67;;;20.00;;
14698;SDS011;7439;50.804;4.602;2023-05-08T10:28:36;26.63;;;19.53;;
14698;SDS011;7439;50.804;4.602;2023-05-08T10:31:07;21.90;;;16.90;;
14698;SDS011;7439;50.804;4.602;2023-05-08T10:33:49;28.43;;;19.00;;
14698;SDS011;7439;50.804;4.602;2023-05-08T10:45:20;18.63;;;15.77;;
14698;SDS011;7439;50.804;4.602;2023-05-08T10:59:44;18.50;;;13.70;;
14698;SDS011;7439;50.804;4.602;2023-05-08T11:11:05;18.73;;;13.97;;
14698;SDS011;7439;50.804;4.602;2023-05-08T11:13:54;16.60;;;12.90;;
14698;SDS011;7439;50.804;4.602;2023-05-08T11:19:19;19.87;;;14.50;;
14698;SDS011;7439;50.804;4.602;2023-05-08T11:30:54;21.73;;;16.13;;
14698;SDS011;7439;50.804;4.602;2023-05-08T11:34:02;21.73;;;15.50;;
14698;SDS011;7439;50.804;4.602;2023-05-08T11:49:12;19.00;;;13.33;;
14698;SDS011;7439;50.804;4.602;2023-05-08T12:05:03;19.43;;;16.03;;
14698;SDS011;7439;50.804;4.602;2023-05-08T12:11:24;21.83;;;17.37;;
14698;SDS011;7439;50.804;4.602;2023-05-08T12:14:29;18.97;;;16.70;;
14698;SDS011;7439;50.804;4.602;2023-05-08T12:16:57;20.60;;;18.30;;
14698;SDS011;7439;50.804;4.602;2023-05-08T12:19:24;23.73;;;17.03;;
14698;SDS011;7439;50.804;4.602;2023-05-08T12:21:55;22.17;;;17.13;;
14698;SDS011;7439;50.804;4.602;2023-05-08T12:24:23;27.30;;;20.80;;
14698;SDS011;7439;50.804;4.602;2023-05-08T12:26:52;23.00;;;17.63;;
14698;SDS011;7439;50.804;4.602;2023-05-08T12:29:20;20.13;;;18.03;;
14698;SDS011;7439;50.804;4.602;2023-05-08T12:31:48;23.17;;;18.23;;
14698;SDS011;7439;50.804;4.602;2023-05-08T12:34:15;17.73;;;15.43;;
14698;SDS011;7439;50.804;4.602;2023-05-08T12:36:44;17.97;;;15.47;;
14698;SDS011;7439;50.804;4.602;2023-05-08T12:39:13;18.33;;;15.07;;
14698;SDS011;7439;50.804;4.602;2023-05-08T12:41:45;14.20;;;12.73;;
14698;SDS011;7439;50.804;4.602;2023-05-08T12:44:17;13.10;;;11.60;;
14698;SDS011;7439;50.804;4.602;2023-05-08T12:46:45;16.93;;;13.60;;
14698;SDS011;7439;50.804;4.602;2023-05-08T12:49:12;15.40;;;13.07;;
14698;SDS011;7439;50.804;4.602;2023-05-08T12:51:44;19.53;;;15.50;;
14698;SDS011;7439;50.804;4.602;2023-05-08T12:54:21;18.70;;;15.30;;
14698;SDS011;7439;50.804;4.602;2023-05-08T12:56:58;17.60;;;15.03;;
14698;SDS011;7439;50.804;4.602;2023-05-08T12:59:28;16.90;;;14.20;;
14698;SDS011;7439;50.804;4.602;2023-05-08T13:01:58;19.37;;;16.00;;
14698;SDS011;7439;50.804;4.602;2023-05-08T13:04:26;20.43;;;14.83;;
14698;SDS011;7439;50.804;4.602;2023-05-08T13:07:14;20.90;;;15.97;;
14698;SDS011;7439;50.804;4.602;2023-05-08T13:09:55;19.73;;;16.33;;
14698;SDS011;7439;50.804;4.602;2023-05-08T13:12:23;21.33;;;16.97;;
14698;SDS011;7439;50.804;4.602;2023-05-08T13:14:51;20.93;;;16.37;;
14698;SDS011;7439;50.804;4.602;2023-05-08T13:17:18;20.87;;;17.90;;
14698;SDS011;7439;50.804;4.602;2023-05-08T13:19:45;22.83;;;16.93;;
14698;SDS011;7439;50.804;4.602;2023-05-08T13:22:13;19.63;;;17.27;;
14698;SDS011;7439;50.804;4.602;2023-05-08T13:24:41;23.23;;;17.70;;
14698;SDS011;7439;50.804;4.602;2023-05-08T13:27:10;23.53;;;17.87;;
14698;SDS011;7439;50.804;4.602;2023-05-08T13:29:37;22.53;;;17.87;;
14698;SDS011;7439;50.804;4.602;2023-05-08T13:32:06;22.03;;;16.43;;
14698;SDS011;7439;50.804;4.602;2023-05-08T13:37:42;20.40;;;16.10;;
14698;SDS011;7439;50.804;4.602;2023-05-08T13:46:32;16.23;;;13.97;;
14698;SDS011;7439;50.804;4.602;2023-05-08T13:49:05;18.83;;;14.00;;
14698;SDS011;7439;50.804;4.602;2023-05-08T13:52:10;19.90;;;13.90;;
14698;SDS011;7439;50.804;4.602;2023-05-08T13:57:46;20.50;;;15.13;;
14698;SDS011;7439;50.804;4.602;2023-05-08T14:03:03;19.13;;;14.23;;
14698;SDS011;7439;50.804;4.602;2023-05-08T14:12:06;16.77;;;10.83;;
14698;SDS011;7439;50.804;4.602;2023-05-08T14:21:01;18.37;;;13.10;;
14698;SDS011;7439;50.804;4.602;2023-05-08T14:23:28;25.53;;;13.07;;
14698;SDS011;7439;50.804;4.602;2023-05-08T14:25:56;17.67;;;12.37;;
14698;SDS011;7439;50.804;4.602;2023-05-08T14:28:27;17.43;;;11.13;;
14698;SDS011;7439;50.804;4.602;2023-05-08T14:30:56;18.47;;;12.53;;
14698;SDS011;7439;50.804;4.602;2023-05-08T14:53:11;17.67;;;12.77;;
14698;SDS011;7439;50.804;4.602;2023-05-08T16:05:22;14.80;;;12.17;;
14698;SDS011;7439;50.804;4.602;2023-05-08T16:10:36;17.57;;;13.30;;
14698;SDS011;7439;50.804;4.602;2023-05-08T16:13:04;17.20;;;13.10;;
14698;SDS011;7439;50.804;4.602;2023-05-08T16:18:35;18.20;;;13.37;;
14698;SDS011;7439;50.804;4.602;2023-05-08T16:21:08;15.97;;;12.23;;
14698;SDS011;7439;50.804;4.602;2023-05-08T16:26:56;14.97;;;11.13;;
14698;SDS011;7439;50.804;4.602;2023-05-08T16:38:36;14.00;;;10.17;;
14698;SDS011;7439;50.804;4.602;2023-05-08T17:12:17;11.60;;;9.60;;
14698;SDS011;7439;50.804;4.602;2023-05-08T17:30:10;12.37;;;9.23;;
14698;SDS011;7439;50.804;4.602;2023-05-08T18:00:57;11.07;;;8.87;;
14698;SDS011;7439;50.804;4.602;2023-05-08T18:43:16;13.17;;;8.97;;
14698;SDS011;7439;50.804;4.602;2023-05-08T18:48:29;14.23;;;10.33;;
14698;SDS011;7439;50.804;4.602;2023-05-08T18:50:57;12.90;;;10.47;;
14698;SDS011;7439;50.804;4.602;2023-05-08T18:53:24;14.13;;;10.63;;
14698;SDS011;7439;50.804;4.602;2023-05-08T18:55:52;14.63;;;10.27;;
14698;SDS011;7439;50.804;4.602;2023-05-08T18:58:33;14.93;;;10.93;;
14698;SDS011;7439;50.804;4.602;2023-05-08T19:01:01;10.67;;;9.10;;
14698;SDS011;7439;50.804;4.602;2023-05-08T19:03:30;16.23;;;10.00;;
14698;SDS011;7439;50.804;4.602;2023-05-08T19:05:57;16.17;;;12.27;;
14698;SDS011;7439;50.804;4.602;2023-05-08T19:08:24;14.30;;;11.67;;
14698;SDS011;7439;50.804;4.602;2023-05-08T19:10:52;13.67;;;11.20;;
14698;SDS011;7439;50.804;4.602;2023-05-08T19:13:19;13.77;;;10.83;;
14698;SDS011;7439;50.804;4.602;2023-05-08T19:15:48;14.97;;;12.37;;
14698;SDS011;7439;50.804;4.602;2023-05-08T19:18:15;18.03;;;13.13;;
14698;SDS011;7439;50.804;4.602;2023-05-08T19:20:43;21.37;;;11.83;;
14698;SDS011;7439;50.804;4.602;2023-05-08T19:23:10;16.23;;;12.67;;
14698;SDS011;7439;50.804;4.602;2023-05-08T19:25:38;15.47;;;11.40;;
14698;SDS011;7439;50.804;4.602;2023-05-08T19:28:05;16.07;;;11.90;;
14698;SDS011;7439;50.804;4.602;2023-05-08T19:30:33;14.73;;;10.53;;
14698;SDS011;7439;50.804;4.602;2023-05-08T23:23:54;7.50;;;6.70;;
